Time;durP1;ratioP1;P1;durP2;ratioP2;P2;SDS_P1;SDS_P2;PMS_P1;PMS_P2;Temp;Humidity;BMP_temperature;BMP_pressure;BME280_temperature;BME280_humidity;BME280_pressure;Samples;Min_cycle;Max_cycle;Signal;HPM_P1;HPM_P2
2022/03/10 00:01:47;;;;;;;;;;;5.10;72.00;;;;;;5086283;28;20056;-71
2022/03/10 00:04:12;;;;;;;;;;;5.10;72.30;;;;;;5068289;28;19923;-71
2022/03/10 00:06:38;;;;;;;;;;;5.10;72.20;;;;;;5085068;28;19920;-71
2022/03/10 00:09:03;;;;;;;;;;;5.10;72.30;;;;;;5085588;28;19912;-71
2022/03/10 00:11:29;;;;;;;;;;;5.00;72.10;;;;;;5085291;28;19943;-71
2022/03/10 00:13:54;;;;;;;;;;;5.00;71.80;;;;;;5067097;28;19923;-71
2022/03/10 00:16:20;;;;;;;;;;;5.00;72.10;;;;;;5085504;28;19981;-71
2022/03/10 00:18:46;;;;;;;;;;;5.00;72.30;;;;;;5066698;28;20315;-71
2022/03/10 00:21:12;;;;;;;;;;;5.00;72.10;;;;;;5083656;28;19920;-71
2022/03/10 00:23:37;;;;;;;;;;;5.00;72.10;;;;;;5084566;28;19916;-71
2022/03/10 00:26:03;;;;;;;;;;;5.00;72.40;;;;;;5086847;28;20447;-71
2022/03/10 00:28:28;;;;;;;;;;;5.00;72.20;;;;;;5085889;28;19962;-71
2022/03/10 00:30:54;;;;;;;;;;;5.00;72.20;;;;;;5085985;28;19936;-71
2022/03/10 00:33:19;;;;;;;;;;;5.00;72.30;;;;;;5082703;28;19912;-71
2022/03/10 00:35:45;;;;;;;;;;;4.90;72.30;;;;;;5082117;28;19916;-71
2022/03/10 00:38:10;;;;;;;;;;;4.90;72.00;;;;;;5090515;28;19996;-71
2022/03/10 00:40:36;;;;;;;;;;;4.90;72.10;;;;;;5083425;28;19924;-71
2022/03/10 00:43:01;;;;;;;;;;;4.90;72.10;;;;;;5086318;28;19912;-71
2022/03/10 00:45:27;;;;;;;;;;;4.90;72.20;;;;;;5082351;28;19916;-71
2022/03/10 00:47:52;;;;;;;;;;;4.90;72.20;;;;;;5086013;28;19912;-71
2022/03/10 00:50:18;;;;;;;;;;;4.90;72.20;;;;;;5083283;28;19920;-71
2022/03/10 00:52:47;;;;;;;;;;;4.90;72.30;;;;;;5087055;28;19916;-71
2022/03/10 00:55:13;;;;;;;;;;;4.80;72.10;;;;;;5084040;28;19935;-71
2022/03/10 00:57:39;;;;;;;;;;;4.80;72.00;;;;;;5068313;28;19912;-71
2022/03/10 01:00:06;;;;;;;;;;;4.80;72.10;;;;;;5083253;28;19920;-71
2022/03/10 01:02:32;;;;;;;;;;;4.80;71.80;;;;;;5086898;28;20369;-71
2022/03/10 01:04:58;;;;;;;;;;;4.80;72.20;;;;;;5083851;28;19912;-71
2022/03/10 01:07:23;;;;;;;;;;;4.80;72.10;;;;;;5087774;28;19918;-71
2022/03/10 01:09:49;;;;;;;;;;;4.80;72.20;;;;;;5083071;28;20404;-71
2022/03/10 01:12:14;;;;;;;;;;;4.80;72.20;;;;;;5069165;28;19995;-71
2022/03/10 01:14:40;;;;;;;;;;;4.80;72.20;;;;;;5084883;28;20011;-71
2022/03/10 01:17:05;;;;;;;;;;;4.80;72.00;;;;;;5083930;28;20338;-71
2022/03/10 01:19:31;;;;;;;;;;;4.70;72.00;;;;;;5086258;28;19916;-71
2022/03/10 01:21:56;;;;;;;;;;;4.70;72.00;;;;;;5083329;28;20344;-71
2022/03/10 01:24:22;;;;;;;;;;;4.70;72.00;;;;;;5086966;28;19926;-71
2022/03/10 01:26:48;;;;;;;;;;;4.70;72.10;;;;;;5082169;28;19908;-71
2022/03/10 01:29:14;;;;;;;;;;;4.70;72.10;;;;;;5085320;28;19916;-71
2022/03/10 01:31:39;;;;;;;;;;;4.70;72.00;;;;;;5081244;28;19908;-71
2022/03/10 01:34:05;;;;;;;;;;;4.70;72.30;;;;;;5084629;28;20015;-71
2022/03/10 01:36:30;;;;;;;;;;;4.70;72.20;;;;;;5083431;28;19920;-71
2022/03/10 01:38:56;;;;;;;;;;;4.70;72.30;;;;;;5089690;28;19920;-71
2022/03/10 01:41:21;;;;;;;;;;;4.70;72.20;;;;;;5081808;28;19920;-71
2022/03/10 01:44:02;;;;;;;;;;;4.70;71.90;;;;;;5082347;28;20009;-71
2022/03/10 01:46:28;;;;;;;;;;;4.70;72.00;;;;;;5079925;28;19999;-71
2022/03/10 01:48:54;;;;;;;;;;;4.60;72.00;;;;;;5085936;28;20007;-71
2022/03/10 01:51:20;;;;;;;;;;;4.60;72.20;;;;;;5083807;28;19920;-71
2022/03/10 01:53:48;;;;;;;;;;;4.60;72.10;;;;;;5066457;28;19923;-71
2022/03/10 01:56:14;;;;;;;;;;;4.60;72.20;;;;;;5085036;28;20003;-71
2022/03/10 01:58:40;;;;;;;;;;;4.60;72.30;;;;;;5082466;28;20006;-71
2022/03/10 02:01:05;;;;;;;;;;;4.60;72.20;;;;;;5086679;28;19920;-71
2022/03/10 02:03:31;;;;;;;;;;;4.60;72.30;;;;;;5075975;28;20022;-71
2022/03/10 02:05:56;;;;;;;;;;;4.50;72.20;;;;;;5084643;28;19916;-71
2022/03/10 02:11:06;;;;;;;;;;;4.50;72.20;;;;;;5083011;28;20441;-71
2022/03/10 02:13:32;;;;;;;;;;;4.50;72.20;;;;;;5083496;28;19920;-71
2022/03/10 02:18:42;;;;;;;;;;;4.50;72.30;;;;;;5081232;28;19939;-71
2022/03/10 02:21:07;;;;;;;;;;;4.40;72.60;;;;;;5083804;28;20349;-71
2022/03/10 02:23:33;;;;;;;;;;;4.40;72.30;;;;;;5065858;28;20292;-71
2022/03/10 02:25:59;;;;;;;;;;;4.40;72.40;;;;;;5083275;28;19987;-71
2022/03/10 02:28:25;;;;;;;;;;;4.40;72.30;;;;;;5082523;28;20016;-71
2022/03/10 02:30:51;;;;;;;;;;;4.40;72.30;;;;;;5083622;28;19916;-71
2022/03/10 02:33:16;;;;;;;;;;;4.40;72.40;;;;;;5081919;28;19920;-71
2022/03/10 02:35:42;;;;;;;;;;;4.40;72.40;;;;;;5082250;28;20377;-71
2022/03/10 02:38:07;;;;;;;;;;;4.40;72.40;;;;;;5084358;28;19916;-71
2022/03/10 02:40:33;;;;;;;;;;;4.30;72.30;;;;;;5083713;28;19981;-71
2022/03/10 02:42:58;;;;;;;;;;;4.40;72.40;;;;;;5089867;28;19954;-71
2022/03/10 02:45:24;;;;;;;;;;;4.30;72.40;;;;;;5082656;28;19916;-71
2022/03/10 02:47:50;;;;;;;;;;;4.30;72.40;;;;;;5072604;28;19912;-71
2022/03/10 02:50:16;;;;;;;;;;;4.30;72.40;;;;;;5085417;28;20430;-71
2022/03/10 02:52:42;;;;;;;;;;;4.30;72.40;;;;;;5090336;28;19912;-71
2022/03/10 02:55:08;;;;;;;;;;;4.30;72.20;;;;;;5068671;28;19943;-71
2022/03/10 02:57:33;;;;;;;;;;;4.30;72.40;;;;;;5089429;28;20014;-71
2022/03/10 03:00:02;;;;;;;;;;;4.30;72.40;;;;;;5067191;28;19995;-71
2022/03/10 03:02:28;;;;;;;;;;;4.30;72.30;;;;;;5089930;28;19912;-71
2022/03/10 03:04:54;;;;;;;;;;;4.20;72.30;;;;;;5086902;28;19916;-71
2022/03/10 03:07:19;;;;;;;;;;;4.20;72.40;;;;;;5092141;28;19915;-71
2022/03/10 03:09:45;;;;;;;;;;;4.30;72.40;;;;;;5085047;28;19916;-71
2022/03/10 03:12:10;;;;;;;;;;;4.30;72.40;;;;;;5089545;28;20002;-71
2022/03/10 03:14:36;;;;;;;;;;;4.20;72.10;;;;;;5086061;28;19908;-71
2022/03/10 03:17:01;;;;;;;;;;;4.20;72.30;;;;;;5087916;28;19916;-71
2022/03/10 03:19:27;;;;;;;;;;;4.20;72.20;;;;;;5089908;28;19919;-70
2022/03/10 03:21:53;;;;;;;;;;;4.20;72.30;;;;;;5085996;28;20538;-70
2022/03/10 03:24:20;;;;;;;;;;;4.20;72.30;;;;;;5088155;28;20562;-71
2022/03/10 03:26:46;;;;;;;;;;;4.20;72.30;;;;;;5067774;28;19916;-70
2022/03/10 03:29:11;;;;;;;;;;;4.20;72.30;;;;;;5088298;28;19915;-70
2022/03/10 03:31:37;;;;;;;;;;;4.10;72.30;;;;;;5082797;28;20689;-71
2022/03/10 03:34:09;;;;;;;;;;;4.10;72.20;;;;;;5087923;28;19916;-70
2022/03/10 03:36:38;;;;;;;;;;;4.10;72.30;;;;;;5085463;28;19916;-70
2022/03/10 03:39:04;;;;;;;;;;;4.10;72.30;;;;;;5074473;28;19924;-71
2022/03/10 03:41:30;;;;;;;;;;;4.10;72.30;;;;;;5082838;28;19931;-70
2022/03/10 03:43:55;;;;;;;;;;;4.10;72.30;;;;;;5086636;28;19920;-70
2022/03/10 03:46:21;;;;;;;;;;;4.10;72.30;;;;;;5084315;28;20456;-70
2022/03/10 03:48:47;;;;;;;;;;;4.10;72.20;;;;;;5071641;28;19916;-70
2022/03/10 03:51:12;;;;;;;;;;;4.10;72.30;;;;;;5084932;28;19951;-70
2022/03/10 03:53:38;;;;;;;;;;;4.10;72.20;;;;;;5086772;28;20042;-70
2022/03/10 03:56:03;;;;;;;;;;;4.00;72.20;;;;;;5069393;28;19912;-70
2022/03/10 03:58:29;;;;;;;;;;;4.10;72.10;;;;;;5086094;28;19923;-71
2022/03/10 04:00:54;;;;;;;;;;;4.00;72.80;;;;;;5086226;28;19920;-70
2022/03/10 04:03:20;;;;;;;;;;;4.00;72.20;;;;;;5084613;28;19916;-71
2022/03/10 04:05:46;;;;;;;;;;;4.00;72.20;;;;;;5086744;28;19970;-71
2022/03/10 04:08:12;;;;;;;;;;;4.00;72.20;;;;;;5086280;28;19965;-70
2022/03/10 04:10:38;;;;;;;;;;;4.00;72.30;;;;;;5087558;28;19970;-71
2022/03/10 04:13:04;;;;;;;;;;;3.90;72.30;;;;;;5084160;28;19965;-70
2022/03/10 04:15:30;;;;;;;;;;;3.90;72.30;;;;;;5086660;28;20445;-71
2022/03/10 04:17:56;;;;;;;;;;;3.90;72.20;;;;;;5084142;28;19946;-70
2022/03/10 04:20:21;;;;;;;;;;;3.90;72.30;;;;;;5067402;28;19912;-70
2022/03/10 04:22:47;;;;;;;;;;;3.90;72.30;;;;;;5084342;28;19912;-70
2022/03/10 04:25:13;;;;;;;;;;;3.90;72.30;;;;;;5086712;28;19908;-71
2022/03/10 04:27:40;;;;;;;;;;;3.90;72.30;;;;;;5084610;28;19959;-71
2022/03/10 04:30:05;;;;;;;;;;;3.90;72.20;;;;;;5086909;28;19944;-71
2022/03/10 04:32:44;;;;;;;;;;;3.80;72.20;;;;;;5085281;28;20397;-70
2022/03/10 04:35:10;;;;;;;;;;;3.80;72.20;;;;;;5085256;28;19952;-70
2022/03/10 04:37:36;;;;;;;;;;;3.80;72.30;;;;;;5083966;28;19912;-71
2022/03/10 04:40:01;;;;;;;;;;;3.80;72.20;;;;;;5084302;28;23347;-70
2022/03/10 04:42:28;;;;;;;;;;;3.80;72.20;;;;;;5087898;28;19916;-70
2022/03/10 04:44:53;;;;;;;;;;;3.80;72.20;;;;;;5081460;28;20049;-70
2022/03/10 04:47:19;;;;;;;;;;;3.80;72.40;;;;;;5087642;28;20523;-70
2022/03/10 04:49:44;;;;;;;;;;;3.70;72.10;;;;;;5080162;28;19912;-70
2022/03/10 04:52:10;;;;;;;;;;;3.70;72.20;;;;;;5087448;28;19937;-71
2022/03/10 04:54:35;;;;;;;;;;;3.70;72.20;;;;;;5083064;28;19912;-69
2022/03/10 04:57:01;;;;;;;;;;;3.70;72.20;;;;;;5087351;28;19912;-71
2022/03/10 04:59:26;;;;;;;;;;;3.70;72.20;;;;;;5084133;28;20057;-70
2022/03/10 05:01:52;;;;;;;;;;;3.70;72.20;;;;;;5086749;28;19953;-71
2022/03/10 05:04:17;;;;;;;;;;;3.70;72.20;;;;;;5081740;28;19947;-71
2022/03/10 05:06:42;;;;;;;;;;;3.60;72.20;;;;;;5086149;28;19966;-70
2022/03/10 05:09:08;;;;;;;;;;;3.60;72.20;;;;;;5081190;28;19996;-70
2022/03/10 05:11:33;;;;;;;;;;;3.60;72.20;;;;;;5086679;28;20726;-70
2022/03/10 05:13:59;;;;;;;;;;;3.60;72.20;;;;;;5085196;28;19919;-70
2022/03/10 05:16:24;;;;;;;;;;;3.60;72.20;;;;;;5083688;28;19971;-70
2022/03/10 05:18:50;;;;;;;;;;;3.60;72.20;;;;;;5083327;28;19916;-70
2022/03/10 05:21:16;;;;;;;;;;;3.60;72.30;;;;;;5084224;28;19939;-70
2022/03/10 05:23:41;;;;;;;;;;;3.50;72.20;;;;;;5084604;28;20266;-70
2022/03/10 05:26:07;;;;;;;;;;;3.50;72.20;;;;;;5084305;28;19920;-70
2022/03/10 05:28:32;;;;;;;;;;;3.50;72.20;;;;;;5068485;28;19970;-70
2022/03/10 05:30:58;;;;;;;;;;;3.50;72.30;;;;;;5065936;28;20339;-70
2022/03/10 05:33:23;;;;;;;;;;;3.50;72.20;;;;;;5068202;28;19954;-70
2022/03/10 05:35:49;;;;;;;;;;;3.50;72.30;;;;;;5082573;28;20365;-70
2022/03/10 05:38:14;;;;;;;;;;;3.50;72.40;;;;;;5082574;28;19962;-70
2022/03/10 05:40:40;;;;;;;;;;;3.40;72.30;;;;;;5082810;28;20292;-70
2022/03/10 05:43:07;;;;;;;;;;;3.50;72.30;;;;;;5084951;28;21743;-71
2022/03/10 05:45:33;;;;;;;;;;;3.40;72.30;;;;;;5084492;28;20002;-70
2022/03/10 05:47:58;;;;;;;;;;;3.40;72.20;;;;;;5085465;28;20384;-70
2022/03/10 05:50:25;;;;;;;;;;;3.40;72.20;;;;;;5086143;28;20034;-70
2022/03/10 05:52:50;;;;;;;;;;;3.40;72.30;;;;;;5083875;28;20069;-70
2022/03/10 05:55:16;;;;;;;;;;;3.40;72.20;;;;;;5085135;28;20355;-70
2022/03/10 05:57:42;;;;;;;;;;;3.40;72.20;;;;;;5082658;28;19916;-70
2022/03/10 06:00:10;;;;;;;;;;;3.40;72.20;;;;;;5085077;28;20018;-70
2022/03/10 06:02:35;;;;;;;;;;;3.30;72.10;;;;;;5071155;28;19920;-70
2022/03/10 06:05:01;;;;;;;;;;;3.40;72.20;;;;;;5083683;28;19923;-70
2022/03/10 06:07:27;;;;;;;;;;;3.30;72.10;;;;;;5080957;28;19912;-70
2022/03/10 06:10:08;;;;;;;;;;;3.30;72.10;;;;;;5084831;28;19927;-70
2022/03/10 06:12:34;;;;;;;;;;;3.30;72.20;;;;;;5082923;28;19916;-70
2022/03/10 06:15:01;;;;;;;;;;;3.30;72.20;;;;;;5085122;28;19920;-70
2022/03/10 06:17:26;;;;;;;;;;;3.30;72.20;;;;;;5079231;28;19934;-70
2022/03/10 06:19:52;;;;;;;;;;;3.30;72.10;;;;;;5083734;28;20412;-70
2022/03/10 06:22:18;;;;;;;;;;;3.30;72.20;;;;;;5081984;28;19916;-70
2022/03/10 06:24:44;;;;;;;;;;;3.30;72.20;;;;;;5083561;28;20667;-70
2022/03/10 06:27:10;;;;;;;;;;;3.30;72.10;;;;;;5083049;28;19920;-70
2022/03/10 06:29:37;;;;;;;;;;;3.30;72.20;;;;;;5083676;28;19912;-70
2022/03/10 06:32:03;;;;;;;;;;;3.30;72.20;;;;;;5084218;28;19919;-70
2022/03/10 06:34:28;;;;;;;;;;;3.30;72.20;;;;;;5081009;28;19908;-70
2022/03/10 06:36:56;;;;;;;;;;;3.30;72.10;;;;;;5065674;28;19919;-70
2022/03/10 06:39:22;;;;;;;;;;;3.30;72.10;;;;;;5081693;28;20032;-70
2022/03/10 06:41:47;;;;;;;;;;;3.30;72.20;;;;;;5084269;28;20348;-70
2022/03/10 06:44:13;;;;;;;;;;;3.30;72.00;;;;;;5083228;28;19908;-70
2022/03/10 06:46:38;;;;;;;;;;;3.30;72.10;;;;;;5084105;28;20288;-70
2022/03/10 06:49:04;;;;;;;;;;;3.30;72.10;;;;;;5080793;28;19916;-70
2022/03/10 06:51:29;;;;;;;;;;;3.30;72.10;;;;;;5086639;28;19912;-70
2022/03/10 06:53:55;;;;;;;;;;;3.30;72.10;;;;;;5080618;28;19920;-70
2022/03/10 06:56:20;;;;;;;;;;;3.30;72.20;;;;;;5086255;28;19916;-70
2022/03/10 06:58:45;;;;;;;;;;;3.30;72.10;;;;;;5082215;28;19938;-70
2022/03/10 07:01:11;;;;;;;;;;;3.30;72.20;;;;;;5084058;28;19920;-70
2022/03/10 07:03:36;;;;;;;;;;;3.30;72.20;;;;;;5080672;28;19930;-70
2022/03/10 07:06:02;;;;;;;;;;;3.30;72.10;;;;;;5083208;28;19920;-71
2022/03/10 07:08:28;;;;;;;;;;;3.30;72.10;;;;;;5083445;28;19912;-70
2022/03/10 07:10:53;;;;;;;;;;;3.30;72.20;;;;;;5083370;28;19961;-70
2022/03/10 07:13:19;;;;;;;;;;;3.30;72.10;;;;;;5083870;28;20390;-70
2022/03/10 07:15:45;;;;;;;;;;;3.30;72.10;;;;;;5083179;28;20444;-70
2022/03/10 07:18:10;;;;;;;;;;;3.30;72.20;;;;;;5068247;28;19916;-70
2022/03/10 07:20:36;;;;;;;;;;;3.40;72.20;;;;;;5081392;28;19916;-70
2022/03/10 07:23:01;;;;;;;;;;;3.30;72.10;;;;;;5083892;28;20011;-70
2022/03/10 07:25:27;;;;;;;;;;;3.30;72.20;;;;;;5063505;28;19919;-70
2022/03/10 07:27:53;;;;;;;;;;;3.30;72.20;;;;;;5085134;28;19920;-70
2022/03/10 07:30:18;;;;;;;;;;;3.30;72.20;;;;;;5082425;28;19928;-71
2022/03/10 07:32:44;;;;;;;;;;;3.40;72.30;;;;;;5087247;28;19931;-70
2022/03/10 07:35:09;;;;;;;;;;;3.40;72.20;;;;;;5084319;28;19916;-70
2022/03/10 07:37:35;;;;;;;;;;;3.40;72.20;;;;;;5085366;28;19939;-70
2022/03/10 07:40:01;;;;;;;;;;;3.40;72.20;;;;;;5084606;28;19920;-70
2022/03/10 07:42:26;;;;;;;;;;;3.40;72.20;;;;;;5087844;28;19916;-70
2022/03/10 07:44:52;;;;;;;;;;;3.50;72.20;;;;;;5090701;28;19915;-70
2022/03/10 07:47:18;;;;;;;;;;;3.50;72.20;;;;;;5085151;28;19959;-70
2022/03/10 07:49:43;;;;;;;;;;;3.50;72.20;;;;;;5088238;28;20426;-71
2022/03/10 07:52:09;;;;;;;;;;;3.50;72.20;;;;;;5085439;28;20331;-70
2022/03/10 07:54:34;;;;;;;;;;;3.50;72.10;;;;;;5069619;28;19920;-70
2022/03/10 07:57:00;;;;;;;;;;;3.50;72.10;;;;;;5066856;28;19919;-70
2022/03/10 07:59:26;;;;;;;;;;;3.60;72.00;;;;;;5086300;28;19917;-70
2022/03/10 08:01:51;;;;;;;;;;;3.60;72.10;;;;;;5085424;28;19924;-71
2022/03/10 08:04:17;;;;;;;;;;;3.60;72.00;;;;;;5087629;28;19965;-71
2022/03/10 08:06:43;;;;;;;;;;;3.60;71.90;;;;;;5082760;28;19923;-70
2022/03/10 08:09:10;;;;;;;;;;;3.70;71.90;;;;;;5069069;28;19916;-71
2022/03/10 08:11:37;;;;;;;;;;;3.70;71.80;;;;;;5086247;28;19923;-70
2022/03/10 08:14:04;;;;;;;;;;;3.70;71.80;;;;;;5086601;28;20384;-70
2022/03/10 08:16:30;;;;;;;;;;;3.70;71.90;;;;;;5082485;28;19920;-70
2022/03/10 08:18:55;;;;;;;;;;;3.80;72.00;;;;;;5086528;28;19945;-70
2022/03/10 08:21:21;;;;;;;;;;;3.90;71.80;;;;;;5085639;28;20425;-71
2022/03/10 08:23:47;;;;;;;;;;;4.00;71.80;;;;;;5061925;28;19920;-70
2022/03/10 08:26:13;;;;;;;;;;;4.00;71.60;;;;;;5082675;28;19912;-70
2022/03/10 08:28:39;;;;;;;;;;;4.20;71.60;;;;;;5084061;28;20373;-70
2022/03/10 08:31:04;;;;;;;;;;;4.20;71.60;;;;;;5068027;28;19919;-70
2022/03/10 08:33:30;;;;;;;;;;;4.40;71.60;;;;;;5083155;28;19908;-71
2022/03/10 08:35:56;;;;;;;;;;;4.40;71.90;;;;;;5082838;28;19917;-70
2022/03/10 08:38:21;;;;;;;;;;;4.50;71.50;;;;;;5082157;28;19998;-70
2022/03/10 08:40:47;;;;;;;;;;;4.60;71.40;;;;;;5085904;28;19939;-71
2022/03/10 08:43:13;;;;;;;;;;;4.70;71.10;;;;;;5081759;28;19916;-71
2022/03/10 08:45:39;;;;;;;;;;;4.90;70.90;;;;;;5087272;28;20743;-70
2022/03/10 08:48:05;;;;;;;;;;;5.00;70.80;;;;;;5066058;28;19953;-71
2022/03/10 08:50:30;;;;;;;;;;;5.10;70.60;;;;;;5069255;28;19962;-71
2022/03/10 08:52:56;;;;;;;;;;;5.20;70.30;;;;;;5084137;28;19923;-71
2022/03/10 08:55:22;;;;;;;;;;;5.30;70.10;;;;;;5086983;28;19927;-71
2022/03/10 08:57:48;;;;;;;;;;;5.40;69.90;;;;;;5081307;28;19919;-71
2022/03/10 09:00:13;;;;;;;;;;;5.50;69.80;;;;;;5086309;28;19916;-70
2022/03/10 09:02:41;;;;;;;;;;;5.50;69.70;;;;;;5068034;28;19970;-71
2022/03/10 09:05:08;;;;;;;;;;;5.60;69.70;;;;;;5084113;28;19962;-71
2022/03/10 09:07:34;;;;;;;;;;;5.70;69.70;;;;;;5066725;28;19931;-71
2022/03/10 09:09:59;;;;;;;;;;;5.70;69.50;;;;;;5064339;28;19929;-70
2022/03/10 09:12:25;;;;;;;;;;;5.80;69.50;;;;;;5085019;28;20733;-71
2022/03/10 09:14:50;;;;;;;;;;;5.90;69.00;;;;;;5083987;28;19920;-71
2022/03/10 09:17:16;;;;;;;;;;;5.90;68.90;;;;;;5084108;28;19939;-70
2022/03/10 09:19:41;;;;;;;;;;;6.00;69.00;;;;;;5066533;28;19916;-71
2022/03/10 09:22:07;;;;;;;;;;;6.00;68.90;;;;;;5081528;28;19992;-70
2022/03/10 09:24:32;;;;;;;;;;;6.10;68.90;;;;;;5083719;28;20547;-70
2022/03/10 09:26:58;;;;;;;;;;;6.10;68.70;;;;;;5084556;28;19912;-70
2022/03/10 09:29:23;;;;;;;;;;;6.20;68.50;;;;;;5083611;28;19916;-70
2022/03/10 09:31:49;;;;;;;;;;;6.20;68.40;;;;;;5083519;28;19923;-70
2022/03/10 09:34:15;;;;;;;;;;;6.20;68.20;;;;;;5082042;28;19918;-70
2022/03/10 09:36:40;;;;;;;;;;;6.30;68.20;;;;;;5083469;28;20003;-71
2022/03/10 09:39:06;;;;;;;;;;;6.40;68.30;;;;;;5083875;28;20082;-70
2022/03/10 09:41:32;;;;;;;;;;;6.40;68.00;;;;;;5063810;28;19996;-70
2022/03/10 09:43:59;;;;;;;;;;;6.50;68.10;;;;;;5085760;28;20257;-70
2022/03/10 09:46:25;;;;;;;;;;;6.50;67.70;;;;;;5082208;28;19916;-71
2022/03/10 09:48:52;;;;;;;;;;;6.50;67.80;;;;;;5068312;28;19908;-71
2022/03/10 09:51:20;;;;;;;;;;;6.60;67.80;;;;;;5082830;28;19927;-71
2022/03/10 09:53:46;;;;;;;;;;;6.60;67.70;;;;;;5083417;28;19916;-69
2022/03/10 09:56:11;;;;;;;;;;;6.60;67.40;;;;;;5064699;28;19927;-70
2022/03/10 09:58:37;;;;;;;;;;;6.70;67.60;;;;;;5082354;28;20002;-71
2022/03/10 10:01:03;;;;;;;;;;;6.70;67.50;;;;;;5082252;28;19963;-70
2022/03/10 10:03:29;;;;;;;;;;;6.80;67.40;;;;;;5085137;28;19916;-71
2022/03/10 10:05:58;;;;;;;;;;;6.80;67.50;;;;;;5082770;28;19916;-71
2022/03/10 10:08:24;;;;;;;;;;;6.90;67.30;;;;;;5081131;28;19993;-71
2022/03/10 10:10:50;;;;;;;;;;;6.90;66.90;;;;;;5081649;28;19916;-71
2022/03/10 10:13:28;;;;;;;;;;;7.00;67.10;;;;;;5084519;28;20490;-71
2022/03/10 10:16:01;;;;;;;;;;;7.10;67.10;;;;;;5079242;28;20027;-71
2022/03/10 10:18:27;;;;;;;;;;;7.10;66.60;;;;;;5083928;28;19919;-70
2022/03/10 10:20:54;;;;;;;;;;;7.20;66.80;;;;;;5085087;28;20658;-70
2022/03/10 10:23:29;;;;;;;;;;;7.20;66.60;;;;;;5080921;28;19916;-71
2022/03/10 10:25:56;;;;;;;;;;;7.30;66.50;;;;;;5083253;28;19916;-70
2022/03/10 10:28:57;;;;;;;;;;;7.30;66.20;;;;;;5081735;28;19912;-71
2022/03/10 10:31:26;;;;;;;;;;;7.40;66.20;;;;;;5014444;28;20645;-71
2022/03/10 10:33:59;;;;;;;;;;;7.40;65.90;;;;;;5071301;28;19916;-71
2022/03/10 10:36:29;;;;;;;;;;;7.40;66.00;;;;;;5080037;28;20332;-71
2022/03/10 10:38:55;;;;;;;;;;;7.50;65.80;;;;;;5078734;28;19927;-71
2022/03/10 10:41:21;;;;;;;;;;;7.60;65.80;;;;;;5082771;28;20478;-74
2022/03/10 10:43:49;;;;;;;;;;;7.70;63.70;;;;;;5065152;28;19919;-71
2022/03/10 10:46:23;;;;;;;;;;;8.00;61.20;;;;;;5066142;28;19920;-71
2022/03/10 10:48:49;;;;;;;;;;;8.40;58.20;;;;;;5082494;28;19908;-71
2022/03/10 10:51:24;;;;;;;;;;;8.70;55.80;;;;;;5084670;28;19923;-71
2022/03/10 10:53:50;;;;;;;;;;;8.90;54.00;;;;;;5082107;28;20361;-71
2022/03/10 10:56:15;;;;;;;;;;;9.00;53.20;;;;;;5084844;28;19916;-71
2022/03/10 10:58:44;;;;;;;;;;;9.20;52.60;;;;;;5081951;28;19923;-71
2022/03/10 11:01:25;;;;;;;;;;;9.40;51.90;;;;;;5065704;28;19920;-71
2022/03/10 11:03:50;;;;;;;;;;;9.50;51.10;;;;;;5085947;28;19962;-71
2022/03/10 11:06:16;;;;;;;;;;;9.60;50.70;;;;;;5087960;28;20377;-71
2022/03/10 11:08:41;;;;;;;;;;;9.70;50.00;;;;;;5087042;28;19955;-72
2022/03/10 11:11:07;;;;;;;;;;;9.70;50.50;;;;;;5088545;28;19969;-73
2022/03/10 11:13:33;;;;;;;;;;;9.80;50.20;;;;;;5066664;28;19922;-73
2022/03/10 11:15:58;;;;;;;;;;;10.00;49.70;;;;;;5086430;28;19912;-73
2022/03/10 11:18:24;;;;;;;;;;;10.10;49.40;;;;;;5086678;28;19912;-73
2022/03/10 11:21:05;;;;;;;;;;;10.20;49.80;;;;;;5070561;28;20391;-73
2022/03/10 11:23:45;;;;;;;;;;;10.30;49.30;;;;;;5066826;28;20635;-73
2022/03/10 11:26:15;;;;;;;;;;;10.40;49.70;;;;;;5086803;28;19912;-73
2022/03/10 11:28:45;;;;;;;;;;;10.60;48.70;;;;;;5086185;28;19912;-73
2022/03/10 11:31:11;;;;;;;;;;;10.70;48.50;;;;;;5084829;28;20364;-72
2022/03/10 11:33:40;;;;;;;;;;;10.80;48.80;;;;;;5085560;28;19919;-75
2022/03/10 11:36:23;;;;;;;;;;;10.90;48.20;;;;;;5082466;28;20671;-74
2022/03/10 11:38:49;;;;;;;;;;;11.10;49.10;;;;;;5066590;28;19954;-73
2022/03/10 11:41:15;;;;;;;;;;;11.20;48.90;;;;;;5083459;28;20015;-72
2022/03/10 11:43:40;;;;;;;;;;;11.30;48.30;;;;;;5093260;28;20445;-72
2022/03/10 11:46:17;;;;;;;;;;;11.50;47.90;;;;;;5087039;28;19920;-72
2022/03/10 11:48:43;;;;;;;;;;;11.60;47.30;;;;;;5087587;28;19912;-73
2022/03/10 11:51:09;;;;;;;;;;;11.70;48.00;;;;;;5083825;28;19927;-73
2022/03/10 11:53:54;;;;;;;;;;;11.90;48.10;;;;;;5088535;28;19938;-72
2022/03/10 11:56:31;;;;;;;;;;;11.90;47.40;;;;;;5064799;28;19916;-73
2022/03/10 11:58:59;;;;;;;;;;;12.10;47.50;;;;;;5088806;28;19957;-73
2022/03/10 12:01:27;;;;;;;;;;;12.20;47.60;;;;;;5083902;28;19969;-72
2022/03/10 12:03:52;;;;;;;;;;;12.30;47.10;;;;;;5087070;28;19962;-74
2022/03/10 12:06:29;;;;;;;;;;;12.40;47.50;;;;;;5083740;28;19912;-70
2022/03/10 12:09:02;;;;;;;;;;;12.40;47.90;;;;;;5087130;28;19912;-74
2022/03/10 12:11:46;;;;;;;;;;;12.50;46.50;;;;;;5084348;28;19924;-75
2022/03/10 12:14:25;;;;;;;;;;;12.60;46.90;;;;;;5086938;28;19912;-74
2022/03/10 12:16:50;;;;;;;;;;;12.70;47.10;;;;;;5084770;28;20543;-74
2022/03/10 12:19:16;;;;;;;;;;;12.80;47.30;;;;;;5087700;28;19923;-74
2022/03/10 12:21:42;;;;;;;;;;;12.90;47.30;;;;;;5084643;28;19974;-74
2022/03/10 12:24:07;;;;;;;;;;;12.90;46.30;;;;;;5088000;28;19934;-74
2022/03/10 12:26:34;;;;;;;;;;;13.00;47.00;;;;;;5083995;28;19916;-73
2022/03/10 12:28:59;;;;;;;;;;;13.10;47.50;;;;;;5083134;28;19916;-72
2022/03/10 12:31:27;;;;;;;;;;;13.20;46.70;;;;;;5065051;28;19927;-73
2022/03/10 12:33:54;;;;;;;;;;;13.30;45.90;;;;;;5086266;28;19916;-73
2022/03/10 12:36:24;;;;;;;;;;;13.30;46.20;;;;;;5083348;28;19916;-73
2022/03/10 12:38:50;;;;;;;;;;;13.30;45.30;;;;;;5086783;28;19927;-72
2022/03/10 12:41:17;;;;;;;;;;;13.30;45.10;;;;;;5067421;28;19924;-72
2022/03/10 12:43:43;;;;;;;;;;;13.40;46.50;;;;;;5047505;28;20404;-73
2022/03/10 12:46:09;;;;;;;;;;;13.40;45.70;;;;;;5068590;28;19920;-72
2022/03/10 12:48:57;;;;;;;;;;;13.50;46.20;;;;;;5085297;28;19916;-72
2022/03/10 12:51:24;;;;;;;;;;;13.60;46.60;;;;;;5083564;28;19920;-70
2022/03/10 12:53:51;;;;;;;;;;;13.60;46.50;;;;;;5082133;28;20302;-70
2022/03/10 12:56:16;;;;;;;;;;;13.70;46.70;;;;;;5083827;28;19999;-72
2022/03/10 12:58:44;;;;;;;;;;;13.70;46.90;;;;;;5085260;28;20444;-70
2022/03/10 13:01:10;;;;;;;;;;;13.70;46.40;;;;;;5068374;28;19966;-71
2022/03/10 13:03:55;;;;;;;;;;;13.70;47.20;;;;;;5084560;28;19912;-71
2022/03/10 13:06:24;;;;;;;;;;;13.60;46.80;;;;;;5086958;28;19909;-71
2022/03/10 13:08:54;;;;;;;;;;;13.80;46.60;;;;;;5083491;28;20413;-70
2022/03/10 13:11:20;;;;;;;;;;;13.80;47.10;;;;;;5067798;28;19912;-73
2022/03/10 13:13:46;;;;;;;;;;;13.80;46.80;;;;;;5084717;28;19935;-74
2022/03/10 13:16:11;;;;;;;;;;;13.80;46.20;;;;;;5087744;28;19916;-73
2022/03/10 13:18:45;;;;;;;;;;;13.80;46.50;;;;;;5082055;28;19919;-73
2022/03/10 13:21:10;;;;;;;;;;;13.80;45.30;;;;;;5085714;28;19915;-75
2022/03/10 13:23:36;;;;;;;;;;;13.80;45.60;;;;;;5083681;28;20507;-72
2022/03/10 13:26:02;;;;;;;;;;;13.90;46.10;;;;;;5069338;28;20399;-71
2022/03/10 13:28:29;;;;;;;;;;;13.90;46.70;;;;;;5084896;28;21514;-71
2022/03/10 13:30:56;;;;;;;;;;;14.00;46.00;;;;;;5085542;28;20296;-71
2022/03/10 13:33:24;;;;;;;;;;;14.00;45.80;;;;;;5082139;28;19912;-71
2022/03/10 13:35:50;;;;;;;;;;;14.10;45.80;;;;;;5088674;28;19912;-71
2022/03/10 13:38:18;;;;;;;;;;;14.10;46.50;;;;;;5085788;28;19935;-72
2022/03/10 13:40:43;;;;;;;;;;;14.10;45.90;;;;;;5085107;28;20615;-71
2022/03/10 13:43:18;;;;;;;;;;;14.10;45.80;;;;;;5085085;28;19916;-71
2022/03/10 13:45:44;;;;;;;;;;;14.20;45.90;;;;;;5080247;28;19923;-72
2022/03/10 13:51:14;;;;;;;;;;;14.30;46.80;;;;;;5065413;28;19915;-73
2022/03/10 13:53:51;;;;;;;;;;;14.20;45.90;;;;;;5082944;28;19912;-76
2022/03/10 13:56:17;;;;;;;;;;;14.20;45.20;;;;;;5065158;28;19924;-76
2022/03/10 13:58:42;;;;;;;;;;;14.20;44.80;;;;;;5084180;28;19919;-74
2022/03/10 14:01:07;;;;;;;;;;;14.20;45.60;;;;;;5082379;28;19919;-75
2022/03/10 14:03:37;;;;;;;;;;;14.10;45.30;;;;;;5083530;28;20367;-74
2022/03/10 14:06:03;;;;;;;;;;;14.10;44.60;;;;;;5077463;28;19951;-74
2022/03/10 14:08:29;;;;;;;;;;;14.00;46.50;;;;;;5084885;28;19924;-75
2022/03/10 14:10:57;;;;;;;;;;;14.00;47.60;;;;;;5082221;28;19986;-75
2022/03/10 14:13:26;;;;;;;;;;;14.00;48.30;;;;;;5078199;28;19912;-75
2022/03/10 14:15:59;;;;;;;;;;;14.00;48.90;;;;;;5083288;28;19916;-75
2022/03/10 14:18:25;;;;;;;;;;;13.90;49.50;;;;;;5083458;28;19908;-74
2022/03/10 14:20:52;;;;;;;;;;;13.90;50.40;;;;;;5083980;28;19934;-75
2022/03/10 14:23:22;;;;;;;;;;;13.90;51.10;;;;;;5067143;28;20396;-75
2022/03/10 14:25:47;;;;;;;;;;;13.90;51.70;;;;;;5080056;28;20461;-75
2022/03/10 14:28:14;;;;;;;;;;;13.90;52.30;;;;;;5081781;28;19922;-75
2022/03/10 14:30:39;;;;;;;;;;;13.90;52.40;;;;;;5081163;28;20496;-75
2022/03/10 14:33:05;;;;;;;;;;;13.90;52.70;;;;;;5081176;28;19912;-75